sensor_id;sensor_type;location;lat;lon;timestamp;P1;durP1;ratioP1;P2;durP2;ratioP2
7795;SDS011;3942;51.518;6.912;2023-02-07T00:04:35;41.25;;;18.77;;
7795;SDS011;3942;51.518;6.912;2023-02-07T00:09:37;41.45;;;17.83;;
7795;SDS011;3942;51.518;6.912;2023-02-07T00:14:39;39.42;;;16.45;;
7795;SDS011;3942;51.518;6.912;2023-02-07T00:19:42;40.88;;;14.80;;
7795;SDS011;3942;51.518;6.912;2023-02-07T00:24:44;47.92;;;19.55;;
7795;SDS011;3942;51.518;6.912;2023-02-07T00:29:46;43.25;;;19.52;;
7795;SDS011;3942;51.518;6.912;2023-02-07T00:34:49;58.72;;;22.63;;
7795;SDS011;3942;51.518;6.912;2023-02-07T00:39:51;41.08;;;17.58;;
7795;SDS011;3942;51.518;6.912;2023-02-07T00:44:53;52.95;;;22.42;;
7795;SDS011;3942;51.518;6.912;2023-02-07T00:49:56;65.63;;;24.98;;
7795;SDS011;3942;51.518;6.912;2023-02-07T00:54:58;54.83;;;20.95;;
7795;SDS011;3942;51.518;6.912;2023-02-07T01:00:00;65.28;;;26.15;;
7795;SDS011;3942;51.518;6.912;2023-02-07T01:05:03;78.18;;;25.85;;
7795;SDS011;3942;51.518;6.912;2023-02-07T01:10:06;85.10;;;28.90;;
7795;SDS011;3942;51.518;6.912;2023-02-07T01:15:09;89.65;;;32.88;;
7795;SDS011;3942;51.518;6.912;2023-02-07T01:20:12;82.47;;;32.03;;
7795;SDS011;3942;51.518;6.912;2023-02-07T01:25:14;81.15;;;29.38;;
7795;SDS011;3942;51.518;6.912;2023-02-07T01:30:16;83.88;;;31.73;;
7795;SDS011;3942;51.518;6.912;2023-02-07T01:35:20;78.68;;;31.63;;
7795;SDS011;3942;51.518;6.912;2023-02-07T01:40:21;92.22;;;31.80;;
7795;SDS011;3942;51.518;6.912;2023-02-07T01:45:26;91.50;;;34.47;;
7795;SDS011;3942;51.518;6.912;2023-02-07T01:50:31;80.40;;;30.70;;
7795;SDS011;3942;51.518;6.912;2023-02-07T01:55:34;87.43;;;34.90;;
7795;SDS011;3942;51.518;6.912;2023-02-07T02:00:38;76.65;;;32.13;;
7795;SDS011;3942;51.518;6.912;2023-02-07T02:05:42;72.72;;;27.98;;
7795;SDS011;3942;51.518;6.912;2023-02-07T02:16:13;79.43;;;30.67;;
7795;SDS011;3942;51.518;6.912;2023-02-07T02:27:00;64.88;;;26.98;;
7795;SDS011;3942;51.518;6.912;2023-02-07T02:37:45;82.63;;;28.63;;
7795;SDS011;3942;51.518;6.912;2023-02-07T02:42:49;109.95;;;24.30;;
7795;SDS011;3942;51.518;6.912;2023-02-07T02:47:55;85.55;;;32.47;;
7795;SDS011;3942;51.518;6.912;2023-02-07T02:52:59;89.40;;;33.53;;
7795;SDS011;3942;51.518;6.912;2023-02-07T02:58:01;196.27;;;31.85;;
7795;SDS011;3942;51.518;6.912;2023-02-07T03:03:28;272.60;;;35.17;;
7795;SDS011;3942;51.518;6.912;2023-02-07T03:08:57;84.13;;;30.13;;
7795;SDS011;3942;51.518;6.912;2023-02-07T03:14:07;140.45;;;30.38;;
7795;SDS011;3942;51.518;6.912;2023-02-07T03:19:18;140.50;;;30.67;;
7795;SDS011;3942;51.518;6.912;2023-02-07T03:24:23;154.20;;;29.25;;
7795;SDS011;3942;51.518;6.912;2023-02-07T03:29:29;98.43;;;31.25;;
7795;SDS011;3942;51.518;6.912;2023-02-07T03:34:32;99.03;;;32.25;;
7795;SDS011;3942;51.518;6.912;2023-02-07T03:39:40;167.30;;;31.20;;
7795;SDS011;3942;51.518;6.912;2023-02-07T03:44:42;123.85;;;33.25;;
7795;SDS011;3942;51.518;6.912;2023-02-07T03:49:45;112.85;;;35.13;;
7795;SDS011;3942;51.518;6.912;2023-02-07T03:54:49;143.27;;;30.98;;
7795;SDS011;3942;51.518;6.912;2023-02-07T03:59:50;158.60;;;26.90;;
7795;SDS011;3942;51.518;6.912;2023-02-07T04:04:52;100.60;;;34.80;;
7795;SDS011;3942;51.518;6.912;2023-02-07T04:09:55;95.65;;;32.20;;
7795;SDS011;3942;51.518;6.912;2023-02-07T04:14:57;197.68;;;30.75;;
7795;SDS011;3942;51.518;6.912;2023-02-07T04:19:59;196.93;;;32.40;;
7795;SDS011;3942;51.518;6.912;2023-02-07T04:25:03;142.45;;;38.47;;
7795;SDS011;3942;51.518;6.912;2023-02-07T04:30:06;164.82;;;36.78;;
7795;SDS011;3942;51.518;6.912;2023-02-07T04:35:08;311.10;;;40.83;;
7795;SDS011;3942;51.518;6.912;2023-02-07T04:40:12;120.70;;;33.88;;
7795;SDS011;3942;51.518;6.912;2023-02-07T04:45:14;104.22;;;23.75;;
7795;SDS011;3942;51.518;6.912;2023-02-07T04:50:16;121.57;;;34.05;;
7795;SDS011;3942;51.518;6.912;2023-02-07T04:55:19;152.57;;;25.98;;
7795;SDS011;3942;51.518;6.912;2023-02-07T05:00:21;95.35;;;34.80;;
7795;SDS011;3942;51.518;6.912;2023-02-07T05:05:23;171.90;;;27.70;;
7795;SDS011;3942;51.518;6.912;2023-02-07T05:10:26;106.38;;;33.35;;
7795;SDS011;3942;51.518;6.912;2023-02-07T05:15:29;111.78;;;32.30;;
7795;SDS011;3942;51.518;6.912;2023-02-07T05:20:31;183.35;;;32.70;;
7795;SDS011;3942;51.518;6.912;2023-02-07T05:25:34;119.60;;;35.28;;
7795;SDS011;3942;51.518;6.912;2023-02-07T05:30:36;138.77;;;37.28;;
7795;SDS011;3942;51.518;6.912;2023-02-07T05:35:38;165.23;;;41.03;;
7795;SDS011;3942;51.518;6.912;2023-02-07T05:40:42;155.88;;;34.35;;
7795;SDS011;3942;51.518;6.912;2023-02-07T05:45:44;113.75;;;29.45;;
7795;SDS011;3942;51.518;6.912;2023-02-07T05:50:46;84.95;;;29.23;;
7795;SDS011;3942;51.518;6.912;2023-02-07T05:55:50;81.88;;;31.05;;
7795;SDS011;3942;51.518;6.912;2023-02-07T06:00:53;40.95;;;16.02;;
7795;SDS011;3942;51.518;6.912;2023-02-07T06:05:55;69.00;;;26.38;;
7795;SDS011;3942;51.518;6.912;2023-02-07T06:10:58;58.20;;;23.27;;
7795;SDS011;3942;51.518;6.912;2023-02-07T06:16:00;68.32;;;26.60;;
7795;SDS011;3942;51.518;6.912;2023-02-07T06:21:02;71.82;;;29.48;;
7795;SDS011;3942;51.518;6.912;2023-02-07T06:26:06;67.68;;;26.70;;
7795;SDS011;3942;51.518;6.912;2023-02-07T06:31:08;60.25;;;26.35;;
7795;SDS011;3942;51.518;6.912;2023-02-07T06:36:10;43.67;;;18.60;;
7795;SDS011;3942;51.518;6.912;2023-02-07T06:41:13;50.15;;;23.98;;
7795;SDS011;3942;51.518;6.912;2023-02-07T06:46:15;44.22;;;18.45;;
7795;SDS011;3942;51.518;6.912;2023-02-07T06:51:17;59.50;;;27.42;;
7795;SDS011;3942;51.518;6.912;2023-02-07T06:56:20;46.72;;;19.92;;
7795;SDS011;3942;51.518;6.912;2023-02-07T07:01:22;33.78;;;15.00;;
7795;SDS011;3942;51.518;6.912;2023-02-07T07:06:24;55.17;;;22.83;;
7795;SDS011;3942;51.518;6.912;2023-02-07T07:11:28;43.25;;;20.50;;
7795;SDS011;3942;51.518;6.912;2023-02-07T07:16:30;53.50;;;22.40;;
7795;SDS011;3942;51.518;6.912;2023-02-07T07:21:31;51.05;;;23.00;;
7795;SDS011;3942;51.518;6.912;2023-02-07T07:26:35;45.50;;;21.83;;
7795;SDS011;3942;51.518;6.912;2023-02-07T07:31:37;50.97;;;21.33;;
7795;SDS011;3942;51.518;6.912;2023-02-07T07:36:39;32.83;;;15.18;;
7795;SDS011;3942;51.518;6.912;2023-02-07T07:41:42;51.72;;;23.40;;
7795;SDS011;3942;51.518;6.912;2023-02-07T07:46:44;49.63;;;21.20;;
7795;SDS011;3942;51.518;6.912;2023-02-07T07:51:46;35.17;;;16.65;;
7795;SDS011;3942;51.518;6.912;2023-02-07T07:56:50;33.65;;;15.65;;
7795;SDS011;3942;51.518;6.912;2023-02-07T08:01:52;28.42;;;15.50;;
7795;SDS011;3942;51.518;6.912;2023-02-07T08:06:54;34.38;;;16.27;;
7795;SDS011;3942;51.518;6.912;2023-02-07T08:11:57;37.50;;;17.90;;
7795;SDS011;3942;51.518;6.912;2023-02-07T08:17:00;42.60;;;21.95;;
7795;SDS011;3942;51.518;6.912;2023-02-07T08:22:01;39.42;;;23.00;;
7795;SDS011;3942;51.518;6.912;2023-02-07T08:27:05;39.97;;;23.40;;
7795;SDS011;3942;51.518;6.912;2023-02-07T08:32:06;43.63;;;22.88;;
7795;SDS011;3942;51.518;6.912;2023-02-07T08:37:09;47.67;;;24.58;;
7795;SDS011;3942;51.518;6.912;2023-02-07T08:42:12;39.58;;;21.75;;
7795;SDS011;3942;51.518;6.912;2023-02-07T08:47:14;44.30;;;23.95;;
7795;SDS011;3942;51.518;6.912;2023-02-07T08:52:17;48.00;;;25.50;;
7795;SDS011;3942;51.518;6.912;2023-02-07T08:57:20;49.70;;;23.80;;
7795;SDS011;3942;51.518;6.912;2023-02-07T09:02:24;41.28;;;23.67;;
7795;SDS011;3942;51.518;6.912;2023-02-07T09:07:26;37.80;;;20.45;;
7795;SDS011;3942;51.518;6.912;2023-02-07T09:12:30;30.50;;;18.45;;
7795;SDS011;3942;51.518;6.912;2023-02-07T09:17:32;29.30;;;17.35;;
7795;SDS011;3942;51.518;6.912;2023-02-07T09:22:34;27.40;;;15.70;;
7795;SDS011;3942;51.518;6.912;2023-02-07T09:27:57;39.60;;;18.85;;
7795;SDS011;3942;51.518;6.912;2023-02-07T09:32:59;29.95;;;15.57;;
7795;SDS011;3942;51.518;6.912;2023-02-07T09:38:01;26.52;;;14.95;;
7795;SDS011;3942;51.518;6.912;2023-02-07T09:43:08;19.73;;;10.60;;
7795;SDS011;3942;51.518;6.912;2023-02-07T09:48:20;19.25;;;10.52;;
7795;SDS011;3942;51.518;6.912;2023-02-07T09:53:27;19.77;;;9.75;;
7795;SDS011;3942;51.518;6.912;2023-02-07T09:58:41;15.38;;;8.55;;
7795;SDS011;3942;51.518;6.912;2023-02-07T10:03:45;16.23;;;9.73;;
7795;SDS011;3942;51.518;6.912;2023-02-07T10:08:55;20.05;;;9.25;;
7795;SDS011;3942;51.518;6.912;2023-02-07T10:14:05;31.98;;;16.30;;
7795;SDS011;3942;51.518;6.912;2023-02-07T10:19:21;21.67;;;9.55;;
7795;SDS011;3942;51.518;6.912;2023-02-07T10:24:42;14.68;;;9.70;;
7795;SDS011;3942;51.518;6.912;2023-02-07T10:30:11;13.82;;;8.15;;
7795;SDS011;3942;51.518;6.912;2023-02-07T10:35:17;12.70;;;7.22;;
7795;SDS011;3942;51.518;6.912;2023-02-07T10:40:21;10.27;;;6.68;;
7795;SDS011;3942;51.518;6.912;2023-02-07T10:45:27;11.60;;;7.13;;
7795;SDS011;3942;51.518;6.912;2023-02-07T10:50:29;10.85;;;6.95;;
7795;SDS011;3942;51.518;6.912;2023-02-07T10:55:36;16.45;;;8.23;;
7795;SDS011;3942;51.518;6.912;2023-02-07T11:00:41;13.80;;;7.78;;
7795;SDS011;3942;51.518;6.912;2023-02-07T11:05:52;11.35;;;6.53;;
7795;SDS011;3942;51.518;6.912;2023-02-07T11:10:57;9.13;;;5.90;;
7795;SDS011;3942;51.518;6.912;2023-02-07T11:16:01;10.20;;;5.25;;
7795;SDS011;3942;51.518;6.912;2023-02-07T11:21:07;10.65;;;7.00;;
7795;SDS011;3942;51.518;6.912;2023-02-07T11:26:24;11.93;;;7.05;;
7795;SDS011;3942;51.518;6.912;2023-02-07T11:31:28;11.35;;;6.20;;
7795;SDS011;3942;51.518;6.912;2023-02-07T11:36:33;14.63;;;6.85;;
7795;SDS011;3942;51.518;6.912;2023-02-07T11:41:34;12.63;;;6.68;;
7795;SDS011;3942;51.518;6.912;2023-02-07T11:46:41;14.30;;;8.73;;
7795;SDS011;3942;51.518;6.912;2023-02-07T11:51:43;12.30;;;6.50;;
7795;SDS011;3942;51.518;6.912;2023-02-07T11:56:47;9.90;;;6.13;;
7795;SDS011;3942;51.518;6.912;2023-02-07T12:01:54;11.35;;;7.22;;
7795;SDS011;3942;51.518;6.912;2023-02-07T12:07:02;10.30;;;6.63;;
7795;SDS011;3942;51.518;6.912;2023-02-07T12:12:08;16.80;;;8.18;;
7795;SDS011;3942;51.518;6.912;2023-02-07T12:17:16;8.52;;;5.57;;
7795;SDS011;3942;51.518;6.912;2023-02-07T12:22:27;10.23;;;5.57;;
7795;SDS011;3942;51.518;6.912;2023-02-07T12:27:30;10.50;;;6.07;;
7795;SDS011;3942;51.518;6.912;2023-02-07T12:32:39;11.15;;;5.70;;
7795;SDS011;3942;51.518;6.912;2023-02-07T12:37:44;9.32;;;5.07;;
7795;SDS011;3942;51.518;6.912;2023-02-07T12:42:53;11.85;;;6.35;;
7795;SDS011;3942;51.518;6.912;2023-02-07T12:48:00;8.88;;;5.57;;
7795;SDS011;3942;51.518;6.912;2023-02-07T12:53:17;9.73;;;5.43;;
7795;SDS011;3942;51.518;6.912;2023-02-07T12:58:27;9.05;;;4.40;;
7795;SDS011;3942;51.518;6.912;2023-02-07T13:09:03;11.55;;;5.57;;
7795;SDS011;3942;51.518;6.912;2023-02-07T13:14:16;11.10;;;5.60;;
7795;SDS011;3942;51.518;6.912;2023-02-07T13:19:19;9.70;;;5.38;;
7795;SDS011;3942;51.518;6.912;2023-02-07T13:29:33;8.50;;;5.43;;
7795;SDS011;3942;51.518;6.912;2023-02-07T13:34:39;8.00;;;5.00;;
7795;SDS011;3942;51.518;6.912;2023-02-07T13:39:52;8.77;;;5.68;;
7795;SDS011;3942;51.518;6.912;2023-02-07T13:45:00;7.40;;;4.75;;
7795;SDS011;3942;51.518;6.912;2023-02-07T13:50:05;8.48;;;5.30;;
7795;SDS011;3942;51.518;6.912;2023-02-07T13:55:21;11.50;;;5.45;;
7795;SDS011;3942;51.518;6.912;2023-02-07T14:00:30;8.60;;;5.30;;
7795;SDS011;3942;51.518;6.912;2023-02-07T14:05:35;8.48;;;6.50;;
7795;SDS011;3942;51.518;6.912;2023-02-07T14:10:43;8.55;;;5.85;;
7795;SDS011;3942;51.518;6.912;2023-02-07T14:15:55;9.27;;;5.85;;
7795;SDS011;3942;51.518;6.912;2023-02-07T14:21:01;11.68;;;6.40;;
7795;SDS011;3942;51.518;6.912;2023-02-07T14:26:10;14.48;;;6.15;;
7795;SDS011;3942;51.518;6.912;2023-02-07T14:31:32;8.88;;;5.45;;
7795;SDS011;3942;51.518;6.912;2023-02-07T14:36:34;9.38;;;6.00;;
7795;SDS011;3942;51.518;6.912;2023-02-07T14:41:38;8.80;;;5.82;;
7795;SDS011;3942;51.518;6.912;2023-02-07T14:46:45;14.02;;;5.93;;
7795;SDS011;3942;51.518;6.912;2023-02-07T14:51:50;9.43;;;5.63;;
7795;SDS011;3942;51.518;6.912;2023-02-07T14:57:00;9.00;;;5.28;;
7795;SDS011;3942;51.518;6.912;2023-02-07T15:07:31;8.35;;;5.88;;
7795;SDS011;3942;51.518;6.912;2023-02-07T15:12:34;18.23;;;5.68;;
7795;SDS011;3942;51.518;6.912;2023-02-07T15:17:36;10.30;;;6.63;;
7795;SDS011;3942;51.518;6.912;2023-02-07T15:22:45;9.57;;;5.72;;
7795;SDS011;3942;51.518;6.912;2023-02-07T15:27:59;9.55;;;5.07;;
7795;SDS011;3942;51.518;6.912;2023-02-07T15:33:02;8.88;;;5.35;;
7795;SDS011;3942;51.518;6.912;2023-02-07T15:38:13;15.15;;;8.30;;
7795;SDS011;3942;51.518;6.912;2023-02-07T15:43:25;7.82;;;5.10;;
7795;SDS011;3942;51.518;6.912;2023-02-07T15:48:28;11.60;;;6.68;;
7795;SDS011;3942;51.518;6.912;2023-02-07T15:53:30;8.60;;;5.57;;
7795;SDS011;3942;51.518;6.912;2023-02-07T15:58:35;12.40;;;6.95;;
7795;SDS011;3942;51.518;6.912;2023-02-07T16:03:40;13.55;;;6.82;;
7795;SDS011;3942;51.518;6.912;2023-02-07T16:08:42;11.90;;;6.28;;
7795;SDS011;3942;51.518;6.912;2023-02-07T16:13:48;11.40;;;6.93;;
7795;SDS011;3942;51.518;6.912;2023-02-07T16:19:02;12.18;;;7.30;;
7795;SDS011;3942;51.518;6.912;2023-02-07T16:24:06;20.60;;;8.73;;
7795;SDS011;3942;51.518;6.912;2023-02-07T16:29:10;13.27;;;7.40;;
7795;SDS011;3942;51.518;6.912;2023-02-07T16:34:17;13.02;;;7.30;;
7795;SDS011;3942;51.518;6.912;2023-02-07T16:39:19;14.10;;;7.97;;
7795;SDS011;3942;51.518;6.912;2023-02-07T16:44:24;11.70;;;6.47;;
7795;SDS011;3942;51.518;6.912;2023-02-07T16:49:28;17.33;;;6.32;;
7795;SDS011;3942;51.518;6.912;2023-02-07T16:54:30;21.77;;;9.38;;
7795;SDS011;3942;51.518;6.912;2023-02-07T16:59:34;14.52;;;8.02;;
7795;SDS011;3942;51.518;6.912;2023-02-07T17:04:36;17.92;;;7.65;;
7795;SDS011;3942;51.518;6.912;2023-02-07T17:09:39;10.45;;;6.35;;
7795;SDS011;3942;51.518;6.912;2023-02-07T17:14:43;13.38;;;7.22;;
7795;SDS011;3942;51.518;6.912;2023-02-07T17:19:45;17.70;;;9.40;;
7795;SDS011;3942;51.518;6.912;2023-02-07T17:24:47;19.00;;;9.68;;
7795;SDS011;3942;51.518;6.912;2023-02-07T17:29:51;13.93;;;7.53;;
7795;SDS011;3942;51.518;6.912;2023-02-07T17:34:52;13.20;;;7.82;;
7795;SDS011;3942;51.518;6.912;2023-02-07T17:39:55;16.00;;;8.77;;
7795;SDS011;3942;51.518;6.912;2023-02-07T17:44:58;16.50;;;8.55;;
7795;SDS011;3942;51.518;6.912;2023-02-07T17:50:00;20.13;;;10.00;;
7795;SDS011;3942;51.518;6.912;2023-02-07T17:55:03;30.58;;;11.48;;
7795;SDS011;3942;51.518;6.912;2023-02-07T18:00:09;18.00;;;10.00;;
7795;SDS011;3942;51.518;6.912;2023-02-07T18:05:15;30.20;;;12.70;;
7795;SDS011;3942;51.518;6.912;2023-02-07T18:10:18;86.45;;;35.38;;
7795;SDS011;3942;51.518;6.912;2023-02-07T18:15:23;16.38;;;9.27;;
7795;SDS011;3942;51.518;6.912;2023-02-07T18:20:26;14.65;;;8.70;;
7795;SDS011;3942;51.518;6.912;2023-02-07T18:25:29;13.23;;;7.20;;
7795;SDS011;3942;51.518;6.912;2023-02-07T18:30:32;18.70;;;7.38;;
7795;SDS011;3942;51.518;6.912;2023-02-07T18:35:34;13.75;;;7.10;;
7795;SDS011;3942;51.518;6.912;2023-02-07T18:40:38;18.55;;;9.00;;
7795;SDS011;3942;51.518;6.912;2023-02-07T18:45:41;11.50;;;7.28;;
7795;SDS011;3942;51.518;6.912;2023-02-07T18:50:43;15.93;;;9.15;;
7795;SDS011;3942;51.518;6.912;2023-02-07T18:55:47;14.05;;;8.23;;
7795;SDS011;3942;51.518;6.912;2023-02-07T19:00:50;15.60;;;8.70;;
7795;SDS011;3942;51.518;6.912;2023-02-07T19:05:55;13.90;;;8.13;;
7795;SDS011;3942;51.518;6.912;2023-02-07T19:10:57;16.70;;;9.60;;
7795;SDS011;3942;51.518;6.912;2023-02-07T19:16:03;17.23;;;9.30;;
7795;SDS011;3942;51.518;6.912;2023-02-07T19:21:05;22.90;;;11.90;;
7795;SDS011;3942;51.518;6.912;2023-02-07T19:26:08;20.02;;;12.00;;
7795;SDS011;3942;51.518;6.912;2023-02-07T19:31:13;20.98;;;12.63;;
7795;SDS011;3942;51.518;6.912;2023-02-07T19:36:17;27.08;;;12.15;;
7795;SDS011;3942;51.518;6.912;2023-02-07T19:41:21;20.35;;;10.50;;
7795;SDS011;3942;51.518;6.912;2023-02-07T19:46:25;18.73;;;10.10;;
7795;SDS011;3942;51.518;6.912;2023-02-07T19:51:27;20.85;;;9.98;;
7795;SDS011;3942;51.518;6.912;2023-02-07T19:56:31;15.68;;;9.02;;
7795;SDS011;3942;51.518;6.912;2023-02-07T20:01:35;16.52;;;10.20;;
7795;SDS011;3942;51.518;6.912;2023-02-07T20:06:37;30.45;;;11.68;;
7795;SDS011;3942;51.518;6.912;2023-02-07T20:11:39;21.38;;;11.50;;
7795;SDS011;3942;51.518;6.912;2023-02-07T20:16:43;16.23;;;10.25;;
7795;SDS011;3942;51.518;6.912;2023-02-07T20:21:46;19.48;;;12.05;;
7795;SDS011;3942;51.518;6.912;2023-02-07T20:26:48;20.42;;;10.93;;
7795;SDS011;3942;51.518;6.912;2023-02-07T20:31:51;17.77;;;10.00;;
7795;SDS011;3942;51.518;6.912;2023-02-07T20:36:54;15.80;;;9.77;;
7795;SDS011;3942;51.518;6.912;2023-02-07T20:41:56;17.25;;;10.57;;
7795;SDS011;3942;51.518;6.912;2023-02-07T20:46:59;23.88;;;10.43;;
7795;SDS011;3942;51.518;6.912;2023-02-07T20:52:03;16.30;;;9.93;;
7795;SDS011;3942;51.518;6.912;2023-02-07T20:57:05;19.95;;;11.10;;
7795;SDS011;3942;51.518;6.912;2023-02-07T21:02:09;20.08;;;11.32;;
7795;SDS011;3942;51.518;6.912;2023-02-07T21:07:11;19.45;;;10.13;;
7795;SDS011;3942;51.518;6.912;2023-02-07T21:12:14;19.05;;;10.75;;
7795;SDS011;3942;51.518;6.912;2023-02-07T21:17:17;21.30;;;10.48;;
7795;SDS011;3942;51.518;6.912;2023-02-07T21:22:19;20.35;;;11.55;;
7795;SDS011;3942;51.518;6.912;2023-02-07T21:27:22;19.63;;;11.90;;
7795;SDS011;3942;51.518;6.912;2023-02-07T21:32:26;21.65;;;11.00;;
7795;SDS011;3942;51.518;6.912;2023-02-07T21:37:28;23.05;;;11.68;;
7795;SDS011;3942;51.518;6.912;2023-02-07T21:42:30;30.83;;;11.18;;
7795;SDS011;3942;51.518;6.912;2023-02-07T21:47:34;22.98;;;12.32;;
7795;SDS011;3942;51.518;6.912;2023-02-07T21:52:36;22.48;;;13.38;;
7795;SDS011;3942;51.518;6.912;2023-02-07T21:57:38;28.92;;;15.35;;
7795;SDS011;3942;51.518;6.912;2023-02-07T22:02:42;36.08;;;18.75;;
7795;SDS011;3942;51.518;6.912;2023-02-07T22:07:44;30.85;;;16.52;;
7795;SDS011;3942;51.518;6.912;2023-02-07T22:12:46;58.80;;;26.70;;
7795;SDS011;3942;51.518;6.912;2023-02-07T22:17:49;32.88;;;16.90;;
7795;SDS011;3942;51.518;6.912;2023-02-07T22:22:51;28.33;;;13.85;;
7795;SDS011;3942;51.518;6.912;2023-02-07T22:27:54;35.88;;;18.35;;
7795;SDS011;3942;51.518;6.912;2023-02-07T22:32:57;38.97;;;21.33;;
7795;SDS011;3942;51.518;6.912;2023-02-07T22:38:00;33.45;;;17.50;;
7795;SDS011;3942;51.518;6.912;2023-02-07T22:43:02;32.25;;;19.10;;
7795;SDS011;3942;51.518;6.912;2023-02-07T22:48:06;35.30;;;17.75;;
7795;SDS011;3942;51.518;6.912;2023-02-07T22:53:08;32.38;;;17.00;;
7795;SDS011;3942;51.518;6.912;2023-02-07T22:58:11;31.48;;;16.90;;
7795;SDS011;3942;51.518;6.912;2023-02-07T23:03:15;33.17;;;16.42;;
7795;SDS011;3942;51.518;6.912;2023-02-07T23:08:17;34.15;;;16.55;;
7795;SDS011;3942;51.518;6.912;2023-02-07T23:13:19;32.28;;;17.80;;
7795;SDS011;3942;51.518;6.912;2023-02-07T23:18:22;32.38;;;18.15;;
7795;SDS011;3942;51.518;6.912;2023-02-07T23:23:24;34.28;;;19.83;;
7795;SDS011;3942;51.518;6.912;2023-02-07T23:28:27;41.55;;;21.83;;
7795;SDS011;3942;51.518;6.912;2023-02-07T23:33:30;38.38;;;20.45;;
7795;SDS011;3942;51.518;6.912;2023-02-07T23:38:33;41.45;;;22.83;;
7795;SDS011;3942;51.518;6.912;2023-02-07T23:43:35;37.35;;;21.52;;
7795;SDS011;3942;51.518;6.912;2023-02-07T23:48:39;50.38;;;26.10;;
7795;SDS011;3942;51.518;6.912;2023-02-07T23:53:41;51.30;;;24.83;;
7795;SDS011;3942;51.518;6.912;2023-02-07T23:58:44;48.65;;;26.08;;
